M/V Alton St. Amant — WDE7604 — position and weather

sailwx.info

Track history (hours):
 
Tides and Currents Weather Stations Pressure Air Temp Water Temp Dewpoint Dewpoint Depression Visibility Wind Speed Wind Dir Waves Ship Positions

M/V Alton St. Amant

Owner: The Barge Investment Group Five, L.L.C., Harahan, LA. More information available from US FCC via Universal Licensing System and Coast Guard Vessel Documentation Center.

Last reported at 2016-May-28 13:30 UTC. Time now 2016-May-28 19:44 UTC.
Position N 30°05' W 094°04'.

Length 25 m; draft 2.7 m.

Type: Towing. MMSI: 367395270.

Date/timePositionNaut miles runAvg speedWind from/ knotsBaromVisibWave heightAir tempDewpointWater temp
2016-May-28 13:30N 30°05' W 094°04'13 2.4
2016-May-28 08:10N 29°58' W 093°52'0 0.0
2016-May-28 07:33N 29°58' W 093°52'  
2016-May-25 18:33N 29°32' W 094°54'8 7.8
2016-May-25 17:32N 29°39' W 094°58'6 6.1
2016-May-25 16:34N 29°44' W 095°02'4 3.8
2016-May-25 15:24N 29°47' W 095°05'0 0.0
2016-May-25 03:17N 29°47' W 095°05'0 0.0
2016-May-25 02:21N 29°47' W 095°05'0 0.2
2016-May-25 01:20N 29°47' W 095°05'0 0.1
2016-May-24 23:33N 29°47' W 095°04'0 0.1
2016-May-24 22:27N 29°47' W 095°05'0 0.0
2016-May-24 21:33N 29°47' W 095°05'0 0.1
2016-May-24 19:08N 29°47' W 095°05'0 0.0
2016-May-24 18:09N 29°47' W 095°05'0 0.0
2016-May-23 00:34N 29°47' W 095°05'0 0.0
2016-May-22 23:25N 29°47' W 095°05'0 0.0
2016-May-22 22:32N 29°47' W 095°05'0 0.0
2016-May-22 21:33N 29°47' W 095°05'0 0.0
2016-May-22 19:25N 29°47' W 095°05'6 0.8
2016-May-22 11:23N 29°42' W 095°00'5 6.2
2016-May-22 10:32N 29°37' W 094°60'2 1.7
2016-May-22 09:32N 29°37' W 095°02'0 0.0
2016-May-22 08:34N 29°37' W 095°02'0 0.0
2016-May-22 07:32N 29°37' W 095°02'0 0.0
2016-May-22 06:33N 29°37' W 095°02'0 0.0
2016-May-22 05:32N 29°37' W 095°02'0 0.0
2016-May-22 04:33N 29°37' W 095°02'0 0.0
2016-May-22 03:33N 29°37' W 095°02'0 0.0
2016-May-22 02:34N 29°37' W 095°02'0 0.0
2016-May-22 01:33N 29°37' W 095°02'0 0.0
2016-May-22 00:34N 29°37' W 095°02'0 0.0
2016-May-21 23:31N 29°37' W 095°02'0 0.0
2016-May-21 22:30N 29°37' W 095°02'0 0.0
2016-May-21 21:33N 29°37' W 095°02'0 0.0
2016-May-21 20:33N 29°37' W 095°02'0 0.0
2016-May-21 19:31N 29°37' W 095°02'0 0.2
2016-May-21 18:33N 29°37' W 095°01'0 0.2
2016-May-21 17:33N 29°37' W 095°02'0 0.0
2016-May-21 16:32N 29°37' W 095°02'0 0.0
2016-May-21 15:32N 29°37' W 095°02'0 0.0
2016-May-21 14:33N 29°37' W 095°02'0 0.0
2016-May-21 13:33N 29°37' W 095°02'0 0.0
2016-May-21 12:33N 29°37' W 095°02'0 0.0
2016-May-21 11:33N 29°37' W 095°02'0 0.0
2016-May-21 10:34N 29°37' W 095°02'0 0.0
2016-May-21 09:32N 29°37' W 095°02'0 0.0
2016-May-21 08:33N 29°37' W 095°02'0 0.0
2016-May-21 07:33N 29°37' W 095°02'0 0.0
2016-May-21 06:34N 29°37' W 095°02'0 0.0
2016-May-21 05:33N 29°37' W 095°01'0 0.0
2016-May-21 04:32N 29°37' W 095°01'0 0.0
2016-May-21 03:33N 29°37' W 095°01'0 0.0
2016-May-21 02:33N 29°37' W 095°01'1 1.2
2016-May-21 01:33N 29°37' W 095°00'5 5.2
2016-May-21 00:33N 29°42' W 095°01'6 6.1
2016-May-20 23:33N 29°47' W 095°04'0 0.4
2016-May-20 22:32N 29°47' W 095°05'0 0.0
2016-May-20 21:29N 29°47' W 095°05'0 0.0
2016-May-20 19:16N 29°47' W 095°05'0 0.0
2016-May-18 19:20N 29°47' W 095°05'0 0.5
2016-May-18 18:29N 29°47' W 095°04'0 0.1
2016-May-18 17:27N 29°47' W 095°04'  
Track history (hours):
 
Tides and Currents Weather Stations Pressure Air Temp Water Temp Dewpoint Dewpoint Depression Visibility Wind Speed Wind Dir Waves Ship Positions

M/V Alton St. Amant

Owner: The Barge Investment Group Five, L.L.C., Harahan, LA. More information available from US FCC via Universal Licensing System and Coast Guard Vessel Documentation Center.

Last reported at 2016-May-28 13:30 UTC. Time now 2016-May-28 19:44 UTC.
Position N 30°05' W 094°04'.

Length 25 m; draft 2.7 m.

Type: Towing. MMSI: 367395270.

Date/timePositionNaut miles runAvg speedWind from/ knotsBaromVisibWave heightAir tempDewpointWater temp
2016-May-28 13:30N 30°05' W 094°04'13 2.4
2016-May-28 08:10N 29°58' W 093°52'0 0.0
2016-May-28 07:33N 29°58' W 093°52'  
2016-May-25 18:33N 29°32' W 094°54'8 7.8
2016-May-25 17:32N 29°39' W 094°58'6 6.1
2016-May-25 16:34N 29°44' W 095°02'4 3.8
2016-May-25 15:24N 29°47' W 095°05'0 0.0
2016-May-25 03:17N 29°47' W 095°05'0 0.0
2016-May-25 02:21N 29°47' W 095°05'0 0.2
2016-May-25 01:20N 29°47' W 095°05'0 0.1
2016-May-24 23:33N 29°47' W 095°04'0 0.1
2016-May-24 22:27N 29°47' W 095°05'0 0.0
2016-May-24 21:33N 29°47' W 095°05'0 0.1
2016-May-24 19:08N 29°47' W 095°05'0 0.0
2016-May-24 18:09N 29°47' W 095°05'0 0.0
2016-May-23 00:34N 29°47' W 095°05'0 0.0
2016-May-22 23:25N 29°47' W 095°05'0 0.0
2016-May-22 22:32N 29°47' W 095°05'0 0.0
2016-May-22 21:33N 29°47' W 095°05'0 0.0
2016-May-22 19:25N 29°47' W 095°05'6 0.8
2016-May-22 11:23N 29°42' W 095°00'5 6.2
2016-May-22 10:32N 29°37' W 094°60'2 1.7
2016-May-22 09:32N 29°37' W 095°02'0 0.0
2016-May-22 08:34N 29°37' W 095°02'0 0.0
2016-May-22 07:32N 29°37' W 095°02'0 0.0
2016-May-22 06:33N 29°37' W 095°02'0 0.0
2016-May-22 05:32N 29°37' W 095°02'0 0.0
2016-May-22 04:33N 29°37' W 095°02'0 0.0
2016-May-22 03:33N 29°37' W 095°02'0 0.0
2016-May-22 02:34N 29°37' W 095°02'0 0.0
2016-May-22 01:33N 29°37' W 095°02'0 0.0
2016-May-22 00:34N 29°37' W 095°02'0 0.0
2016-May-21 23:31N 29°37' W 095°02'0 0.0
2016-May-21 22:30N 29°37' W 095°02'0 0.0
2016-May-21 21:33N 29°37' W 095°02'0 0.0
2016-May-21 20:33N 29°37' W 095°02'0 0.0
2016-May-21 19:31N 29°37' W 095°02'0 0.2
2016-May-21 18:33N 29°37' W 095°01'0 0.2
2016-May-21 17:33N 29°37' W 095°02'0 0.0
2016-May-21 16:32N 29°37' W 095°02'0 0.0
2016-May-21 15:32N 29°37' W 095°02'0 0.0
2016-May-21 14:33N 29°37' W 095°02'0 0.0
2016-May-21 13:33N 29°37' W 095°02'0 0.0
2016-May-21 12:33N 29°37' W 095°02'0 0.0
2016-May-21 11:33N 29°37' W 095°02'0 0.0
2016-May-21 10:34N 29°37' W 095°02'0 0.0
2016-May-21 09:32N 29°37' W 095°02'0 0.0
2016-May-21 08:33N 29°37' W 095°02'0 0.0
2016-May-21 07:33N 29°37' W 095°02'0 0.0
2016-May-21 06:34N 29°37' W 095°02'0 0.0
2016-May-21 05:33N 29°37' W 095°01'0 0.0
2016-May-21 04:32N 29°37' W 095°01'0 0.0
2016-May-21 03:33N 29°37' W 095°01'0 0.0
2016-May-21 02:33N 29°37' W 095°01'1 1.2
2016-May-21 01:33N 29°37' W 095°00'5 5.2
2016-May-21 00:33N 29°42' W 095°01'6 6.1
2016-May-20 23:33N 29°47' W 095°04'0 0.4
2016-May-20 22:32N 29°47' W 095°05'0 0.0
2016-May-20 21:29N 29°47' W 095°05'0 0.0
2016-May-20 19:16N 29°47' W 095°05'0 0.0
2016-May-18 19:20N 29°47' W 095°05'0 0.5
2016-May-18 18:29N 29°47' W 095°04'0 0.1
2016-May-18 17:27N 29°47' W 095°04'  

Dump ship's entire track history